createdAt,value
2022-11-12T00:01:22.764Z,11.20
2022-11-12T00:03:57.456Z,11.20
2022-11-12T00:06:29.182Z,11.20
2022-11-12T00:09:00.931Z,11.20
2022-11-12T00:11:32.618Z,11.20
2022-11-12T00:14:04.421Z,11.20
2022-11-12T00:16:36.146Z,11.20
2022-11-12T00:19:07.921Z,11.20
2022-11-12T00:21:39.664Z,11.20
2022-11-12T00:24:13.518Z,11.20
2022-11-12T00:26:47.337Z,11.20
2022-11-12T00:29:21.587Z,11.20
2022-11-12T00:31:53.303Z,11.20
2022-11-12T00:34:25.132Z,11.20
2022-11-12T00:36:56.863Z,11.10
2022-11-12T00:39:29.180Z,11.10
2022-11-12T00:42:00.871Z,11.10
2022-11-12T00:44:32.622Z,11.10
2022-11-12T00:47:04.352Z,11.20
2022-11-12T00:49:36.077Z,11.10
2022-11-12T00:52:07.853Z,11.10
2022-11-12T00:54:39.599Z,11.20
2022-11-12T00:57:11.329Z,11.20
2022-11-12T00:59:43.129Z,11.10
2022-11-12T01:02:14.815Z,11.10
2022-11-12T01:04:46.583Z,11.10
2022-11-12T01:07:18.350Z,11.10
2022-11-12T01:09:52.594Z,11.10
2022-11-12T01:12:24.344Z,11.10
2022-11-12T01:14:57.070Z,11.10
2022-11-12T01:17:28.891Z,11.10
2022-11-12T01:20:05.551Z,11.10
2022-11-12T01:22:37.290Z,11.10
2022-11-12T01:25:09.164Z,11.10
2022-11-12T01:27:40.874Z,11.10
2022-11-12T01:30:12.702Z,11.10
2022-11-12T01:32:44.507Z,11.10
2022-11-12T01:35:16.288Z,11.10
2022-11-12T01:37:48.047Z,11.10
2022-11-12T01:40:20.616Z,11.10
2022-11-12T01:42:53.169Z,11.10
2022-11-12T01:45:27.395Z,11.10
2022-11-12T01:48:04.566Z,11.10
2022-11-12T01:50:38.934Z,11.10
2022-11-12T01:53:12.416Z,11.10
2022-11-12T01:55:44.258Z,11.10
2022-11-12T01:58:18.337Z,11.10
2022-11-12T02:00:50.699Z,11.10
2022-11-12T02:03:24.265Z,11.10
2022-11-12T02:05:58.585Z,11.10
2022-11-12T02:08:31.006Z,11.10
2022-11-12T02:11:11.951Z,11.10
2022-11-12T02:14:00.972Z,11.10
2022-11-12T02:16:34.474Z,11.10
2022-11-12T02:19:10.199Z,11.10
2022-11-12T02:21:42.207Z,11.10
2022-11-12T02:24:13.889Z,11.10
2022-11-12T02:26:46.985Z,11.10
2022-11-12T02:29:18.703Z,11.10
2022-11-12T02:31:50.421Z,11.10
2022-11-12T02:34:22.146Z,11.10
2022-11-12T02:36:53.955Z,11.10
2022-11-12T02:39:25.651Z,11.20
2022-11-12T02:41:57.751Z,11.10
2022-11-12T02:44:29.902Z,11.10
2022-11-12T02:47:01.640Z,11.10
2022-11-12T02:49:33.334Z,11.20
2022-11-12T02:52:07.242Z,11.20
2022-11-12T02:54:41.435Z,11.20
2022-11-12T02:57:15.415Z,11.20
2022-11-12T02:59:47.083Z,11.20
2022-11-12T03:02:18.874Z,11.20
2022-11-12T03:04:50.561Z,11.20
2022-11-12T03:07:22.336Z,11.20
2022-11-12T03:09:54.045Z,11.20
2022-11-12T03:12:25.787Z,11.30
2022-11-12T03:14:57.502Z,11.30
2022-11-12T03:17:29.262Z,11.20
2022-11-12T03:20:01.022Z,11.30
2022-11-12T03:22:32.828Z,11.20
2022-11-12T03:25:07.425Z,11.20
2022-11-12T03:27:39.300Z,11.20
2022-11-12T03:30:11.200Z,11.20
2022-11-12T03:32:42.947Z,11.20
2022-11-12T03:35:14.734Z,11.20
2022-11-12T03:37:46.528Z,11.20
2022-11-12T03:40:18.901Z,11.20
2022-11-12T03:42:51.355Z,11.30
2022-11-12T03:45:24.392Z,11.30
2022-11-12T03:47:57.477Z,11.30
2022-11-12T03:50:29.925Z,11.30
2022-11-12T03:53:01.878Z,11.30
2022-11-12T03:55:33.607Z,11.20
2022-11-12T03:58:05.360Z,11.20
2022-11-12T04:00:39.218Z,11.20
2022-11-12T04:03:11.084Z,11.20
2022-11-12T04:06:01.403Z,11.20
2022-11-12T04:08:39.086Z,11.30
2022-11-12T04:11:14.785Z,11.20
2022-11-12T04:13:48.719Z,11.20
2022-11-12T04:16:40.155Z,11.20
2022-11-12T04:19:31.318Z,11.20
2022-11-12T04:22:04.709Z,11.20
2022-11-12T04:24:56.800Z,11.20
2022-11-12T04:27:31.098Z,11.20
2022-11-12T04:30:19.051Z,11.20
2022-11-12T04:32:57.046Z,11.20
2022-11-12T04:35:28.866Z,11.20
2022-11-12T04:38:00.628Z,11.20
2022-11-12T04:40:50.811Z,11.20
2022-11-12T04:43:41.071Z,11.20
2022-11-12T04:46:12.851Z,11.20
2022-11-12T04:48:44.562Z,11.20
2022-11-12T04:51:37.179Z,11.20
2022-11-12T04:54:08.866Z,11.20
2022-11-12T04:56:40.644Z,11.20
2022-11-12T04:59:12.358Z,11.20
2022-11-12T05:01:44.158Z,11.30
2022-11-12T05:04:16.171Z,11.30
2022-11-12T05:06:56.034Z,11.30
2022-11-12T05:09:29.005Z,11.30
2022-11-12T05:12:05.445Z,11.30
2022-11-12T05:14:37.476Z,11.30
2022-11-12T05:17:09.211Z,11.30
2022-11-12T05:19:40.974Z,11.30
2022-11-12T05:22:33.421Z,11.30
2022-11-12T05:25:04.949Z,11.30
2022-11-12T05:27:36.924Z,11.30
2022-11-12T05:30:09.045Z,11.30
2022-11-12T05:32:40.869Z,11.30
2022-11-12T05:35:12.569Z,11.30
2022-11-12T05:37:44.322Z,11.30
2022-11-12T05:40:18.237Z,11.30
2022-11-12T05:42:52.128Z,11.30
2022-11-12T05:45:23.845Z,11.30
2022-11-12T05:47:55.616Z,11.30
2022-11-12T05:50:34.807Z,11.30
2022-11-12T05:53:12.181Z,11.30
2022-11-12T05:55:44.031Z,11.30
2022-11-12T05:58:15.790Z,11.40
2022-11-12T06:00:48.153Z,11.40
2022-11-12T06:03:19.961Z,11.40
2022-11-12T06:05:54.343Z,11.40
2022-11-12T06:08:26.451Z,11.40
2022-11-12T06:10:58.398Z,11.40
2022-11-12T06:13:30.467Z,11.40
2022-11-12T06:16:02.219Z,11.40
2022-11-12T06:18:36.332Z,11.40
2022-11-12T06:21:24.910Z,11.40
2022-11-12T06:23:58.032Z,11.40
2022-11-12T06:26:30.142Z,11.40
2022-11-12T06:29:01.901Z,11.40
2022-11-12T06:31:33.623Z,11.40
2022-11-12T06:34:05.924Z,11.50
2022-11-12T06:36:37.658Z,11.40
2022-11-12T06:39:11.120Z,11.40
2022-11-12T06:41:42.896Z,11.50
2022-11-12T06:44:19.143Z,11.50
2022-11-12T06:46:53.597Z,11.60
2022-11-12T06:49:25.343Z,11.60
2022-11-12T06:51:57.100Z,11.70
2022-11-12T06:54:28.889Z,11.70
2022-11-12T06:57:01.214Z,11.70
2022-11-12T06:59:35.180Z,11.70
2022-11-12T07:02:07.087Z,11.70
2022-11-12T07:04:38.872Z,11.80
2022-11-12T07:07:11.182Z,11.80
2022-11-12T07:09:43.140Z,11.90
2022-11-12T07:12:14.841Z,11.90
2022-11-12T07:14:46.865Z,11.90
2022-11-12T07:17:20.998Z,12.00
2022-11-12T07:19:52.762Z,12.00
2022-11-12T07:22:24.509Z,12.00
2022-11-12T07:24:56.246Z,12.10
2022-11-12T07:27:29.482Z,12.10
2022-11-12T07:30:01.253Z,12.20
2022-11-12T07:32:34.486Z,12.20
2022-11-12T07:35:08.251Z,12.20
2022-11-12T07:37:39.951Z,12.20
2022-11-12T07:40:12.021Z,12.30
2022-11-12T07:42:43.732Z,12.30
2022-11-12T07:45:15.584Z,12.30
2022-11-12T07:47:47.281Z,12.30
2022-11-12T07:50:21.412Z,12.40
2022-11-12T07:52:53.158Z,12.40
2022-11-12T07:55:24.943Z,12.40
2022-11-12T07:57:59.132Z,12.40
2022-11-12T08:00:30.917Z,12.50
2022-11-12T08:03:02.620Z,12.50
2022-11-12T08:05:34.417Z,12.50
2022-11-12T08:08:06.221Z,12.60
2022-11-12T08:10:38.598Z,12.60
2022-11-12T08:13:10.298Z,12.70
2022-11-12T08:15:42.422Z,12.70
2022-11-12T08:18:14.330Z,12.70
2022-11-12T08:20:46.052Z,12.80
2022-11-12T08:23:17.786Z,12.80
2022-11-12T08:25:49.573Z,12.80
2022-11-12T08:28:21.317Z,12.80
2022-11-12T08:30:58.740Z,12.80
2022-11-12T08:33:30.842Z,12.80
2022-11-12T08:36:04.305Z,12.90
2022-11-12T08:38:39.137Z,12.90
2022-11-12T08:41:12.303Z,12.90
2022-11-12T08:43:46.528Z,12.90
2022-11-12T08:46:18.279Z,12.90
2022-11-12T08:48:50.077Z,12.90
2022-11-12T08:51:22.017Z,12.90
2022-11-12T08:53:56.294Z,12.90
2022-11-12T08:56:28.000Z,13.00
2022-11-12T08:59:02.652Z,13.00
2022-11-12T09:01:36.882Z,13.00
2022-11-12T09:04:08.692Z,13.10
2022-11-12T09:06:40.496Z,13.10
2022-11-12T09:09:12.409Z,13.10
2022-11-12T09:11:44.165Z,13.20
2022-11-12T09:14:15.973Z,13.20
2022-11-12T09:16:47.705Z,13.20
2022-11-12T09:19:19.440Z,13.20
2022-11-12T09:21:51.196Z,13.10
2022-11-12T09:24:22.901Z,13.00
2022-11-12T09:26:54.683Z,13.00
2022-11-12T09:29:28.782Z,13.10
2022-11-12T09:32:02.746Z,13.00
2022-11-12T09:34:37.242Z,13.00
2022-11-12T09:37:09.006Z,13.00
2022-11-12T09:39:40.798Z,13.00
2022-11-12T09:42:17.870Z,13.00
2022-11-12T09:45:15.993Z,13.00
2022-11-12T09:47:50.422Z,12.90
2022-11-12T09:50:26.021Z,12.90
2022-11-12T09:53:02.731Z,12.90
2022-11-12T09:55:36.528Z,13.00
2022-11-12T09:58:15.290Z,13.00
2022-11-12T10:00:57.569Z,13.00
2022-11-12T10:03:39.370Z,13.00
2022-11-12T10:06:18.176Z,13.00
2022-11-12T10:08:53.509Z,13.00
2022-11-12T10:11:25.441Z,12.90
2022-11-12T10:13:59.555Z,12.90
2022-11-12T10:16:46.711Z,13.00
2022-11-12T10:19:37.172Z,12.90
2022-11-12T10:22:12.006Z,12.90
2022-11-12T10:24:44.690Z,12.90
2022-11-12T10:27:21.588Z,12.90
2022-11-12T10:30:02.378Z,12.80
2022-11-12T10:32:35.652Z,12.90
2022-11-12T10:35:07.780Z,12.80
2022-11-12T10:37:47.637Z,12.80
2022-11-12T10:40:25.393Z,12.80
2022-11-12T10:43:01.069Z,12.90
2022-11-12T10:45:32.942Z,12.80
2022-11-12T10:48:04.874Z,12.80
2022-11-12T10:50:40.366Z,12.80
2022-11-12T10:53:12.994Z,12.90
2022-11-12T10:55:58.198Z,12.90
2022-11-12T10:58:30.292Z,12.80
2022-11-12T11:01:07.370Z,12.80
2022-11-12T11:03:47.196Z,12.80
2022-11-12T11:06:23.024Z,12.80
2022-11-12T11:09:08.243Z,12.80
2022-11-12T11:11:50.717Z,12.80
2022-11-12T11:14:22.416Z,12.80
2022-11-12T11:16:56.628Z,12.80
2022-11-12T11:19:38.982Z,12.80
2022-11-12T11:22:17.670Z,12.80
2022-11-12T11:25:07.788Z,12.80
2022-11-12T11:28:02.771Z,12.80
2022-11-12T11:30:38.862Z,12.80
2022-11-12T11:33:29.750Z,12.70
2022-11-12T11:36:01.444Z,12.70
2022-11-12T11:38:42.134Z,12.80
2022-11-12T11:41:13.843Z,12.70
2022-11-12T11:43:57.714Z,12.80
2022-11-12T11:46:29.461Z,12.80
2022-11-12T11:49:19.852Z,12.80
2022-11-12T11:52:14.578Z,12.80
2022-11-12T11:55:09.281Z,12.80
2022-11-12T11:57:44.334Z,12.80
2022-11-12T12:00:20.913Z,12.80
2022-11-12T12:03:03.392Z,12.90
2022-11-12T12:05:50.047Z,12.80
2022-11-12T12:08:21.733Z,12.80
2022-11-12T12:11:11.746Z,12.80
2022-11-12T12:13:46.250Z,12.80
2022-11-12T12:16:24.334Z,12.90
2022-11-12T12:19:17.313Z,12.80
2022-11-12T12:21:50.242Z,12.80
2022-11-12T12:24:31.135Z,12.80
2022-11-12T12:27:08.974Z,12.70
2022-11-12T12:29:47.211Z,12.70
2022-11-12T12:32:28.197Z,12.70
2022-11-12T12:35:07.732Z,12.70
2022-11-12T12:37:41.546Z,12.70
2022-11-12T12:40:18.835Z,12.70
2022-11-12T12:43:02.679Z,12.70
2022-11-12T12:45:38.325Z,12.70
2022-11-12T12:48:15.604Z,12.70
2022-11-12T12:50:48.516Z,12.70
2022-11-12T12:53:31.942Z,12.70
2022-11-12T12:56:06.904Z,12.80
2022-11-12T12:58:41.701Z,12.80
2022-11-12T13:01:25.172Z,12.80
2022-11-12T13:03:59.780Z,12.80
2022-11-12T13:06:35.798Z,12.80
2022-11-12T13:09:08.237Z,12.90
2022-11-12T13:12:01.552Z,12.90
2022-11-12T13:14:36.227Z,12.90
2022-11-12T13:17:15.201Z,12.90
2022-11-12T13:19:46.982Z,12.90
2022-11-12T13:22:18.689Z,12.90
2022-11-12T13:25:24.145Z,12.90
2022-11-12T13:28:06.132Z,12.90
2022-11-12T13:30:40.881Z,12.90
2022-11-12T13:33:21.552Z,12.90
2022-11-12T13:36:13.252Z,12.80
2022-11-12T13:38:44.962Z,12.90
2022-11-12T13:41:42.228Z,12.80
2022-11-12T13:44:15.724Z,12.90
2022-11-12T13:46:50.225Z,12.90
2022-11-12T13:49:22.037Z,12.80
2022-11-12T13:51:55.918Z,12.80
2022-11-12T13:54:34.741Z,12.80
2022-11-12T13:57:24.127Z,12.80
2022-11-12T14:00:14.694Z,12.80
2022-11-12T14:02:51.381Z,12.80
2022-11-12T14:05:25.280Z,12.70
2022-11-12T14:08:03.198Z,12.70
2022-11-12T14:10:46.299Z,12.70
2022-11-12T14:13:18.335Z,12.70
2022-11-12T14:15:58.637Z,12.70
2022-11-12T14:18:44.757Z,12.70
2022-11-12T14:21:17.508Z,12.70
2022-11-12T14:23:49.868Z,12.70
2022-11-12T14:26:38.570Z,12.70
2022-11-12T14:29:17.361Z,12.70
2022-11-12T14:31:59.497Z,12.70
2022-11-12T14:34:33.132Z,12.70
2022-11-12T14:37:04.980Z,12.60
2022-11-12T14:39:40.542Z,12.60
2022-11-12T14:42:14.664Z,12.70
2022-11-12T14:44:49.003Z,12.70
2022-11-12T14:47:21.252Z,12.70
2022-11-12T14:49:53.081Z,12.60
2022-11-12T14:52:30.332Z,12.70
2022-11-12T14:55:10.353Z,12.60
2022-11-12T14:57:42.394Z,12.60
2022-11-12T15:00:21.812Z,12.60
2022-11-12T15:02:59.615Z,12.60
2022-11-12T15:05:31.723Z,12.60
2022-11-12T15:08:07.233Z,12.60
2022-11-12T15:10:43.505Z,12.60
2022-11-12T15:13:19.076Z,12.60
2022-11-12T15:15:51.262Z,12.60
2022-11-12T15:18:27.478Z,12.60
2022-11-12T15:21:13.105Z,12.60
2022-11-12T15:23:49.072Z,12.60
2022-11-12T15:26:32.283Z,12.60
2022-11-12T15:29:10.027Z,12.60
2022-11-12T15:31:46.619Z,12.60
2022-11-12T15:34:25.771Z,12.60
2022-11-12T15:37:01.379Z,12.60
2022-11-12T15:39:38.859Z,12.60
2022-11-12T15:42:16.420Z,12.60
2022-11-12T15:44:48.408Z,12.60
2022-11-12T15:47:21.643Z,12.60
2022-11-12T15:49:59.381Z,12.50
2022-11-12T15:52:32.622Z,12.60
2022-11-12T15:55:04.502Z,12.50
2022-11-12T15:57:40.899Z,12.60
2022-11-12T16:00:22.690Z,12.60
2022-11-12T16:02:59.498Z,12.60
2022-11-12T16:05:31.231Z,12.60
2022-11-12T16:08:03.061Z,12.60
2022-11-12T16:10:35.342Z,12.60
2022-11-12T16:13:07.765Z,12.60
2022-11-12T16:15:39.529Z,12.60
2022-11-12T16:18:14.724Z,12.60
2022-11-12T16:20:47.289Z,12.60
2022-11-12T16:23:19.057Z,12.60
2022-11-12T16:25:50.892Z,12.60
2022-11-12T16:28:22.674Z,12.60
2022-11-12T16:30:54.412Z,12.60
2022-11-12T16:33:28.597Z,12.70
2022-11-12T16:36:00.535Z,12.60
2022-11-12T16:38:32.321Z,12.60
2022-11-12T16:41:04.117Z,12.70
2022-11-12T16:43:35.965Z,12.60
2022-11-12T16:46:15.747Z,12.60
2022-11-12T16:48:47.565Z,12.60
2022-11-12T16:51:20.286Z,12.70
2022-11-12T16:53:52.061Z,12.70
2022-11-12T16:56:23.806Z,12.70
2022-11-12T16:58:55.655Z,12.70
2022-11-12T17:01:28.492Z,12.70
2022-11-12T17:04:00.419Z,12.70
2022-11-12T17:06:33.871Z,12.70
2022-11-12T17:09:06.427Z,12.70
2022-11-12T17:11:38.255Z,12.70
2022-11-12T17:14:11.129Z,12.70
2022-11-12T17:16:45.041Z,12.70
2022-11-12T17:19:16.895Z,12.70
2022-11-12T17:21:48.718Z,12.70
2022-11-12T17:24:20.673Z,12.70
2022-11-12T17:26:52.459Z,12.70
2022-11-12T17:29:24.276Z,12.70
2022-11-12T17:31:56.099Z,12.70
2022-11-12T17:34:27.890Z,12.70
2022-11-12T17:36:59.631Z,12.70
2022-11-12T17:39:31.699Z,12.70
2022-11-12T17:42:03.764Z,12.70
2022-11-12T17:44:37.078Z,12.60
2022-11-12T17:47:10.771Z,12.60
2022-11-12T17:49:43.762Z,12.60
2022-11-12T17:52:15.784Z,12.60
2022-11-12T17:54:49.718Z,12.60
2022-11-12T17:57:24.338Z,12.60
2022-11-12T17:59:56.301Z,12.50
2022-11-12T18:02:28.050Z,12.60
2022-11-12T18:05:02.089Z,12.60
2022-11-12T18:07:34.034Z,12.60
2022-11-12T18:10:06.131Z,12.50
2022-11-12T18:12:39.088Z,12.50
2022-11-12T18:15:11.176Z,12.50
2022-11-12T18:17:42.908Z,12.50
2022-11-12T18:20:14.812Z,12.50
2022-11-12T18:22:49.421Z,12.50
2022-11-12T18:25:26.706Z,12.50
2022-11-12T18:27:58.523Z,12.50
2022-11-12T18:30:32.936Z,12.50
2022-11-12T18:33:04.946Z,12.40
2022-11-12T18:35:37.077Z,12.40
2022-11-12T18:38:08.870Z,12.40
2022-11-12T18:40:40.747Z,12.40
2022-11-12T18:43:12.594Z,12.40
2022-11-12T18:45:46.876Z,12.40
2022-11-12T18:48:18.712Z,12.40
2022-11-12T18:50:50.523Z,12.40
2022-11-12T18:53:22.309Z,12.40
2022-11-12T18:55:55.692Z,12.40
2022-11-12T18:58:33.615Z,12.40
2022-11-12T19:01:16.128Z,12.40
2022-11-12T19:03:48.671Z,12.40
2022-11-12T19:06:21.048Z,12.40
2022-11-12T19:08:58.001Z,12.40
2022-11-12T19:11:30.063Z,12.30
2022-11-12T19:14:01.854Z,12.40
2022-11-12T19:16:33.656Z,12.40
2022-11-12T19:19:05.463Z,12.40
2022-11-12T19:21:37.341Z,12.30
2022-11-12T19:24:09.139Z,12.30
2022-11-12T19:26:41.020Z,12.30
2022-11-12T19:29:12.818Z,12.30
2022-11-12T19:31:44.678Z,12.30
2022-11-12T19:34:16.477Z,12.30
2022-11-12T19:36:50.468Z,12.30
2022-11-12T19:39:28.346Z,12.30
2022-11-12T19:42:00.355Z,12.30
2022-11-12T19:44:34.508Z,12.30
2022-11-12T19:47:08.524Z,12.30
2022-11-12T19:49:43.526Z,12.30
2022-11-12T19:52:15.558Z,12.30
2022-11-12T19:54:47.940Z,12.30
2022-11-12T19:57:23.098Z,12.30
2022-11-12T19:59:54.816Z,12.30
2022-11-12T20:02:26.703Z,12.30
2022-11-12T20:04:58.859Z,12.30
2022-11-12T20:07:31.135Z,12.30
2022-11-12T20:10:05.779Z,12.30
2022-11-12T20:12:40.189Z,12.30
2022-11-12T20:15:12.007Z,12.30
2022-11-12T20:17:44.227Z,12.30
2022-11-12T20:20:16.389Z,12.30
2022-11-12T20:22:48.450Z,12.30
2022-11-12T20:25:20.277Z,12.30
2022-11-12T20:27:53.368Z,12.30
2022-11-12T20:30:25.255Z,12.30
2022-11-12T20:32:57.118Z,12.30
2022-11-12T20:35:29.068Z,12.30
2022-11-12T20:38:00.993Z,12.30
2022-11-12T20:40:32.865Z,12.30
2022-11-12T20:43:06.063Z,12.30
2022-11-12T20:45:37.925Z,12.30
2022-11-12T20:48:09.736Z,12.30
2022-11-12T20:50:56.578Z,12.30
2022-11-12T20:53:35.312Z,12.30
2022-11-12T20:56:14.803Z,12.30
2022-11-12T20:58:47.243Z,12.30
2022-11-12T21:01:20.364Z,12.20
2022-11-12T21:03:52.426Z,12.20
2022-11-12T21:06:28.168Z,12.30
2022-11-12T21:09:00.486Z,12.20
2022-11-12T21:11:32.435Z,12.20
2022-11-12T21:14:07.237Z,12.30
2022-11-12T21:16:39.044Z,12.30
2022-11-12T21:19:13.362Z,12.20
2022-11-12T21:21:45.199Z,12.20
2022-11-12T21:24:18.565Z,12.20
2022-11-12T21:26:54.859Z,12.30
2022-11-12T21:29:29.575Z,12.30
2022-11-12T21:32:03.473Z,12.20
2022-11-12T21:34:38.451Z,12.20
2022-11-12T21:37:10.241Z,12.30
2022-11-12T21:39:42.210Z,12.30
2022-11-12T21:42:14.129Z,12.20
2022-11-12T21:44:45.994Z,12.30
2022-11-12T21:47:18.027Z,12.20
2022-11-12T21:49:50.011Z,12.20
2022-11-12T21:52:22.006Z,12.20
2022-11-12T21:54:54.792Z,12.20
2022-11-12T21:57:26.646Z,12.20
2022-11-12T22:00:19.476Z,12.20
2022-11-12T22:02:50.501Z,12.20
2022-11-12T22:05:25.336Z,12.20
2022-11-12T22:08:00.039Z,12.20
2022-11-12T22:10:31.980Z,12.20
2022-11-12T22:13:25.804Z,12.20
2022-11-12T22:15:55.899Z,12.20
2022-11-12T22:18:28.262Z,12.20
2022-11-12T22:21:01.280Z,12.20
2022-11-12T22:23:36.129Z,12.20
2022-11-12T22:26:10.355Z,12.20
2022-11-12T22:28:44.990Z,12.20
2022-11-12T22:31:18.080Z,12.10
2022-11-12T22:33:50.206Z,12.20
2022-11-12T22:36:25.391Z,12.20
2022-11-12T22:38:57.696Z,12.10
2022-11-12T22:41:30.916Z,12.10
2022-11-12T22:44:02.849Z,12.20
2022-11-12T22:46:34.908Z,12.10
2022-11-12T22:49:06.734Z,12.10
2022-11-12T22:51:38.497Z,12.20
2022-11-12T22:54:10.256Z,12.10
2022-11-12T22:56:42.112Z,12.10
2022-11-12T22:59:14.083Z,12.10
2022-11-12T23:01:48.658Z,12.20
2022-11-12T23:04:23.539Z,12.10
2022-11-12T23:06:55.394Z,12.10
2022-11-12T23:09:27.116Z,12.10
2022-11-12T23:11:59.023Z,12.10
2022-11-12T23:14:30.737Z,12.10
2022-11-12T23:17:02.563Z,12.10
2022-11-12T23:19:34.306Z,12.10
2022-11-12T23:22:08.063Z,12.10
2022-11-12T23:24:40.010Z,12.10
2022-11-12T23:27:11.775Z,12.10
2022-11-12T23:29:43.537Z,12.10
2022-11-12T23:32:15.338Z,12.10
2022-11-12T23:34:47.099Z,12.10
2022-11-12T23:37:18.872Z,12.10
2022-11-12T23:39:50.634Z,12.10
2022-11-12T23:42:22.386Z,12.20
2022-11-12T23:44:54.109Z,12.10
2022-11-12T23:47:28.256Z,12.20
2022-11-12T23:50:00.022Z,12.10
2022-11-12T23:52:31.800Z,12.10
2022-11-12T23:55:03.548Z,12.10
2022-11-12T23:57:35.661Z,12.10
